sensor_id;sensor_type;location;lat;lon;timestamp;P1;durP1;ratioP1;P2;durP2;ratioP2
9972;SDS011;5027;53.560;10.062;2023-03-29T00:01:19;9.70;;;3.80;;
9972;SDS011;5027;53.560;10.062;2023-03-29T00:04:02;6.43;;;3.13;;
9972;SDS011;5027;53.560;10.062;2023-03-29T00:06:29;7.93;;;3.37;;
9972;SDS011;5027;53.560;10.062;2023-03-29T00:08:58;7.37;;;3.03;;
9972;SDS011;5027;53.560;10.062;2023-03-29T00:11:26;5.93;;;3.20;;
9972;SDS011;5027;53.560;10.062;2023-03-29T00:13:53;6.97;;;3.00;;
9972;SDS011;5027;53.560;10.062;2023-03-29T00:16:20;5.63;;;3.03;;
9972;SDS011;5027;53.560;10.062;2023-03-29T00:18:49;7.00;;;3.10;;
9972;SDS011;5027;53.560;10.062;2023-03-29T00:21:15;7.27;;;2.93;;
9972;SDS011;5027;53.560;10.062;2023-03-29T00:23:42;6.63;;;2.80;;
9972;SDS011;5027;53.560;10.062;2023-03-29T00:26:09;8.97;;;3.37;;
9972;SDS011;5027;53.560;10.062;2023-03-29T00:28:35;6.57;;;3.07;;
9972;SDS011;5027;53.560;10.062;2023-03-29T00:31:09;6.67;;;3.10;;
9972;SDS011;5027;53.560;10.062;2023-03-29T00:33:38;6.70;;;3.43;;
9972;SDS011;5027;53.560;10.062;2023-03-29T00:36:06;7.23;;;3.30;;
9972;SDS011;5027;53.560;10.062;2023-03-29T00:38:34;6.63;;;3.13;;
9972;SDS011;5027;53.560;10.062;2023-03-29T00:41:01;5.10;;;3.37;;
9972;SDS011;5027;53.560;10.062;2023-03-29T00:43:29;8.53;;;3.50;;
9972;SDS011;5027;53.560;10.062;2023-03-29T00:45:56;8.83;;;3.40;;
9972;SDS011;5027;53.560;10.062;2023-03-29T00:48:23;7.90;;;2.93;;
9972;SDS011;5027;53.560;10.062;2023-03-29T00:50:53;7.47;;;3.00;;
9972;SDS011;5027;53.560;10.062;2023-03-29T00:53:26;7.77;;;3.27;;
9972;SDS011;5027;53.560;10.062;2023-03-29T00:56:03;5.80;;;3.10;;
9972;SDS011;5027;53.560;10.062;2023-03-29T00:58:34;6.50;;;3.00;;
9972;SDS011;5027;53.560;10.062;2023-03-29T01:01:12;9.80;;;3.87;;
9972;SDS011;5027;53.560;10.062;2023-03-29T01:03:47;11.67;;;3.17;;
9972;SDS011;5027;53.560;10.062;2023-03-29T01:06:19;7.07;;;3.33;;
9972;SDS011;5027;53.560;10.062;2023-03-29T01:08:52;8.23;;;3.80;;
9972;SDS011;5027;53.560;10.062;2023-03-29T01:11:29;7.73;;;3.20;;
9972;SDS011;5027;53.560;10.062;2023-03-29T01:16:29;10.70;;;3.20;;
9972;SDS011;5027;53.560;10.062;2023-03-29T01:18:58;6.60;;;3.67;;
9972;SDS011;5027;53.560;10.062;2023-03-29T01:24:05;6.57;;;3.00;;
9972;SDS011;5027;53.560;10.062;2023-03-29T01:30:07;8.77;;;3.33;;
9972;SDS011;5027;53.560;10.062;2023-03-29T01:32:41;10.77;;;3.50;;
9972;SDS011;5027;53.560;10.062;2023-03-29T01:38:05;9.20;;;3.50;;
9972;SDS011;5027;53.560;10.062;2023-03-29T01:40:41;7.00;;;3.37;;
9972;SDS011;5027;53.560;10.062;2023-03-29T01:43:30;6.40;;;3.33;;
9972;SDS011;5027;53.560;10.062;2023-03-29T01:46:06;6.67;;;2.73;;
9972;SDS011;5027;53.560;10.062;2023-03-29T01:53:54;6.20;;;2.90;;
9972;SDS011;5027;53.560;10.062;2023-03-29T01:56:28;8.80;;;3.23;;
9972;SDS011;5027;53.560;10.062;2023-03-29T01:58:59;5.73;;;2.80;;
9972;SDS011;5027;53.560;10.062;2023-03-29T02:01:30;10.23;;;2.70;;
9972;SDS011;5027;53.560;10.062;2023-03-29T02:04:06;10.23;;;2.90;;
9972;SDS011;5027;53.560;10.062;2023-03-29T02:06:38;7.87;;;3.00;;
9972;SDS011;5027;53.560;10.062;2023-03-29T02:09:06;5.73;;;2.90;;
9972;SDS011;5027;53.560;10.062;2023-03-29T02:11:34;7.47;;;2.80;;
9972;SDS011;5027;53.560;10.062;2023-03-29T02:14:01;9.20;;;3.23;;
9972;SDS011;5027;53.560;10.062;2023-03-29T02:16:32;6.20;;;3.03;;
9972;SDS011;5027;53.560;10.062;2023-03-29T02:19:01;10.87;;;3.37;;
9972;SDS011;5027;53.560;10.062;2023-03-29T02:21:30;4.87;;;2.90;;
9972;SDS011;5027;53.560;10.062;2023-03-29T02:24:07;7.50;;;2.90;;
9972;SDS011;5027;53.560;10.062;2023-03-29T02:26:38;5.07;;;2.80;;
9972;SDS011;5027;53.560;10.062;2023-03-29T02:29:05;6.67;;;2.87;;
9972;SDS011;5027;53.560;10.062;2023-03-29T02:31:37;9.23;;;2.93;;
9972;SDS011;5027;53.560;10.062;2023-03-29T02:37:04;8.23;;;3.13;;
9972;SDS011;5027;53.560;10.062;2023-03-29T02:39:35;9.73;;;2.80;;
9972;SDS011;5027;53.560;10.062;2023-03-29T02:42:03;7.20;;;2.80;;
9972;SDS011;5027;53.560;10.062;2023-03-29T02:44:31;5.97;;;2.80;;
9972;SDS011;5027;53.560;10.062;2023-03-29T02:47:04;6.93;;;3.50;;
9972;SDS011;5027;53.560;10.062;2023-03-29T02:49:38;6.30;;;2.97;;
9972;SDS011;5027;53.560;10.062;2023-03-29T02:52:08;5.67;;;3.10;;
9972;SDS011;5027;53.560;10.062;2023-03-29T02:54:39;8.07;;;3.30;;
9972;SDS011;5027;53.560;10.062;2023-03-29T02:57:08;8.17;;;3.40;;
9972;SDS011;5027;53.560;10.062;2023-03-29T02:59:35;8.13;;;3.33;;
9972;SDS011;5027;53.560;10.062;2023-03-29T03:02:03;6.13;;;3.00;;
9972;SDS011;5027;53.560;10.062;2023-03-29T03:04:32;4.57;;;2.53;;
9972;SDS011;5027;53.560;10.062;2023-03-29T03:07:00;8.67;;;3.20;;
9972;SDS011;5027;53.560;10.062;2023-03-29T03:09:30;7.67;;;2.93;;
9972;SDS011;5027;53.560;10.062;2023-03-29T03:11:57;8.80;;;2.80;;
9972;SDS011;5027;53.560;10.062;2023-03-29T03:14:24;5.43;;;3.00;;
9972;SDS011;5027;53.560;10.062;2023-03-29T03:16:50;6.40;;;2.63;;
9972;SDS011;5027;53.560;10.062;2023-03-29T03:19:17;7.10;;;2.60;;
9972;SDS011;5027;53.560;10.062;2023-03-29T03:21:44;7.90;;;3.27;;
9972;SDS011;5027;53.560;10.062;2023-03-29T03:24:13;8.43;;;4.13;;
9972;SDS011;5027;53.560;10.062;2023-03-29T03:26:40;6.83;;;3.40;;
9972;SDS011;5027;53.560;10.062;2023-03-29T03:29:07;9.70;;;3.40;;
9972;SDS011;5027;53.560;10.062;2023-03-29T03:32:07;11.57;;;3.97;;
9972;SDS011;5027;53.560;10.062;2023-03-29T03:35:10;9.10;;;4.10;;
9972;SDS011;5027;53.560;10.062;2023-03-29T03:37:39;8.03;;;3.97;;
9972;SDS011;5027;53.560;10.062;2023-03-29T03:40:07;8.17;;;3.90;;
9972;SDS011;5027;53.560;10.062;2023-03-29T03:42:34;11.43;;;3.87;;
9972;SDS011;5027;53.560;10.062;2023-03-29T03:45:01;7.73;;;3.90;;
9972;SDS011;5027;53.560;10.062;2023-03-29T03:47:50;5.40;;;2.87;;
9972;SDS011;5027;53.560;10.062;2023-03-29T03:50:35;8.63;;;3.13;;
9972;SDS011;5027;53.560;10.062;2023-03-29T03:53:03;10.37;;;3.43;;
9972;SDS011;5027;53.560;10.062;2023-03-29T03:55:51;6.70;;;2.87;;
9972;SDS011;5027;53.560;10.062;2023-03-29T03:58:22;5.27;;;2.90;;
9972;SDS011;5027;53.560;10.062;2023-03-29T04:00:50;7.07;;;3.00;;
9972;SDS011;5027;53.560;10.062;2023-03-29T04:03:32;8.87;;;3.60;;
9972;SDS011;5027;53.560;10.062;2023-03-29T04:06:01;7.43;;;3.43;;
9972;SDS011;5027;53.560;10.062;2023-03-29T04:08:45;7.57;;;3.17;;
9972;SDS011;5027;53.560;10.062;2023-03-29T04:11:23;8.20;;;3.33;;
9972;SDS011;5027;53.560;10.062;2023-03-29T04:13:51;8.03;;;2.90;;
9972;SDS011;5027;53.560;10.062;2023-03-29T04:16:30;8.10;;;3.33;;
9972;SDS011;5027;53.560;10.062;2023-03-29T04:19:08;11.37;;;3.57;;
9972;SDS011;5027;53.560;10.062;2023-03-29T04:21:35;10.20;;;3.57;;
9972;SDS011;5027;53.560;10.062;2023-03-29T04:24:01;5.13;;;2.93;;
9972;SDS011;5027;53.560;10.062;2023-03-29T04:26:30;5.83;;;3.60;;
9972;SDS011;5027;53.560;10.062;2023-03-29T04:29:06;6.83;;;3.37;;
9972;SDS011;5027;53.560;10.062;2023-03-29T04:31:44;10.17;;;3.43;;
9972;SDS011;5027;53.560;10.062;2023-03-29T04:34:17;8.63;;;3.43;;
9972;SDS011;5027;53.560;10.062;2023-03-29T04:36:45;5.90;;;3.10;;
9972;SDS011;5027;53.560;10.062;2023-03-29T04:39:19;7.63;;;3.53;;
9972;SDS011;5027;53.560;10.062;2023-03-29T04:41:51;7.70;;;3.17;;
9972;SDS011;5027;53.560;10.062;2023-03-29T04:44:21;8.97;;;3.50;;
9972;SDS011;5027;53.560;10.062;2023-03-29T04:46:48;10.43;;;4.00;;
9972;SDS011;5027;53.560;10.062;2023-03-29T04:49:34;8.13;;;3.60;;
9972;SDS011;5027;53.560;10.062;2023-03-29T04:52:01;13.77;;;4.43;;
9972;SDS011;5027;53.560;10.062;2023-03-29T04:54:29;5.37;;;3.20;;
9972;SDS011;5027;53.560;10.062;2023-03-29T04:57:09;9.83;;;3.70;;
9972;SDS011;5027;53.560;10.062;2023-03-29T05:00:03;7.57;;;3.70;;
9972;SDS011;5027;53.560;10.062;2023-03-29T05:02:58;7.90;;;4.03;;
9972;SDS011;5027;53.560;10.062;2023-03-29T05:05:27;8.37;;;3.97;;
9972;SDS011;5027;53.560;10.062;2023-03-29T05:07:57;8.13;;;3.60;;
9972;SDS011;5027;53.560;10.062;2023-03-29T05:10:31;8.30;;;3.87;;
9972;SDS011;5027;53.560;10.062;2023-03-29T05:12:58;8.03;;;4.17;;
9972;SDS011;5027;53.560;10.062;2023-03-29T05:15:26;7.17;;;4.20;;
9972;SDS011;5027;53.560;10.062;2023-03-29T05:17:53;9.83;;;4.00;;
9972;SDS011;5027;53.560;10.062;2023-03-29T05:20:20;6.43;;;4.57;;
9972;SDS011;5027;53.560;10.062;2023-03-29T05:22:48;11.63;;;4.33;;
9972;SDS011;5027;53.560;10.062;2023-03-29T05:25:37;9.17;;;4.37;;
9972;SDS011;5027;53.560;10.062;2023-03-29T05:28:05;8.43;;;4.80;;
9972;SDS011;5027;53.560;10.062;2023-03-29T05:30:32;12.00;;;4.20;;
9972;SDS011;5027;53.560;10.062;2023-03-29T05:33:08;8.30;;;4.47;;
9972;SDS011;5027;53.560;10.062;2023-03-29T05:35:35;11.33;;;4.57;;
9972;SDS011;5027;53.560;10.062;2023-03-29T05:38:06;8.40;;;4.73;;
9972;SDS011;5027;53.560;10.062;2023-03-29T05:40:33;8.47;;;5.03;;
9972;SDS011;5027;53.560;10.062;2023-03-29T05:43:26;15.33;;;5.27;;
9972;SDS011;5027;53.560;10.062;2023-03-29T05:45:54;7.97;;;4.83;;
9972;SDS011;5027;53.560;10.062;2023-03-29T05:48:22;8.47;;;4.87;;
9972;SDS011;5027;53.560;10.062;2023-03-29T05:50:49;11.70;;;5.07;;
9972;SDS011;5027;53.560;10.062;2023-03-29T05:53:18;7.70;;;4.43;;
9972;SDS011;5027;53.560;10.062;2023-03-29T05:55:46;13.37;;;6.17;;
9972;SDS011;5027;53.560;10.062;2023-03-29T05:58:17;8.07;;;5.07;;
9972;SDS011;5027;53.560;10.062;2023-03-29T06:00:46;9.20;;;5.17;;
9972;SDS011;5027;53.560;10.062;2023-03-29T06:03:32;8.73;;;5.03;;
9972;SDS011;5027;53.560;10.062;2023-03-29T06:05:59;9.40;;;5.30;;
9972;SDS011;5027;53.560;10.062;2023-03-29T06:08:28;8.07;;;4.43;;
9972;SDS011;5027;53.560;10.062;2023-03-29T06:11:06;10.53;;;5.43;;
9972;SDS011;5027;53.560;10.062;2023-03-29T06:13:57;13.40;;;5.20;;
9972;SDS011;5027;53.560;10.062;2023-03-29T06:16:24;9.40;;;5.60;;
9972;SDS011;5027;53.560;10.062;2023-03-29T06:18:51;7.97;;;5.63;;
9972;SDS011;5027;53.560;10.062;2023-03-29T06:21:18;9.43;;;5.47;;
9972;SDS011;5027;53.560;10.062;2023-03-29T06:23:45;9.60;;;5.50;;
9972;SDS011;5027;53.560;10.062;2023-03-29T06:26:14;11.83;;;6.43;;
9972;SDS011;5027;53.560;10.062;2023-03-29T06:28:41;10.97;;;5.67;;
9972;SDS011;5027;53.560;10.062;2023-03-29T06:31:08;12.23;;;5.93;;
9972;SDS011;5027;53.560;10.062;2023-03-29T06:33:37;9.20;;;5.80;;
9972;SDS011;5027;53.560;10.062;2023-03-29T06:36:20;10.00;;;5.33;;
9972;SDS011;5027;53.560;10.062;2023-03-29T06:38:47;9.57;;;5.50;;
9972;SDS011;5027;53.560;10.062;2023-03-29T06:41:21;8.27;;;5.70;;
9972;SDS011;5027;53.560;10.062;2023-03-29T06:44:15;8.93;;;5.37;;
9972;SDS011;5027;53.560;10.062;2023-03-29T06:46:57;10.63;;;5.00;;
9972;SDS011;5027;53.560;10.062;2023-03-29T06:49:23;8.90;;;5.37;;
9972;SDS011;5027;53.560;10.062;2023-03-29T06:52:08;8.10;;;5.43;;
9972;SDS011;5027;53.560;10.062;2023-03-29T06:54:39;8.83;;;5.40;;
9972;SDS011;5027;53.560;10.062;2023-03-29T06:57:06;7.53;;;5.90;;
9972;SDS011;5027;53.560;10.062;2023-03-29T06:59:33;6.67;;;5.37;;
9972;SDS011;5027;53.560;10.062;2023-03-29T07:02:11;8.13;;;5.67;;
9972;SDS011;5027;53.560;10.062;2023-03-29T07:04:53;10.50;;;5.73;;
9972;SDS011;5027;53.560;10.062;2023-03-29T07:07:29;14.00;;;5.93;;
9972;SDS011;5027;53.560;10.062;2023-03-29T07:10:31;8.07;;;5.40;;
9972;SDS011;5027;53.560;10.062;2023-03-29T07:13:29;10.43;;;5.07;;
9972;SDS011;5027;53.560;10.062;2023-03-29T07:15:57;10.70;;;5.07;;
9972;SDS011;5027;53.560;10.062;2023-03-29T07:18:50;9.43;;;5.60;;
9972;SDS011;5027;53.560;10.062;2023-03-29T07:21:32;8.60;;;5.10;;
9972;SDS011;5027;53.560;10.062;2023-03-29T07:24:03;6.93;;;5.00;;
9972;SDS011;5027;53.560;10.062;2023-03-29T07:26:33;6.80;;;5.07;;
9972;SDS011;5027;53.560;10.062;2023-03-29T07:29:00;8.03;;;5.30;;
9972;SDS011;5027;53.560;10.062;2023-03-29T07:31:26;8.20;;;4.80;;
9972;SDS011;5027;53.560;10.062;2023-03-29T07:34:18;9.03;;;6.17;;
9972;SDS011;5027;53.560;10.062;2023-03-29T07:36:44;11.23;;;5.27;;
9972;SDS011;5027;53.560;10.062;2023-03-29T07:39:12;7.80;;;5.10;;
9972;SDS011;5027;53.560;10.062;2023-03-29T07:41:55;11.70;;;5.23;;
9972;SDS011;5027;53.560;10.062;2023-03-29T07:44:24;6.83;;;4.80;;
9972;SDS011;5027;53.560;10.062;2023-03-29T07:46:53;10.00;;;5.43;;
9972;SDS011;5027;53.560;10.062;2023-03-29T07:49:20;9.20;;;5.10;;
9972;SDS011;5027;53.560;10.062;2023-03-29T07:51:47;7.73;;;5.30;;
9972;SDS011;5027;53.560;10.062;2023-03-29T07:54:14;6.00;;;4.70;;
9972;SDS011;5027;53.560;10.062;2023-03-29T07:57:06;10.37;;;4.80;;
9972;SDS011;5027;53.560;10.062;2023-03-29T07:59:40;8.67;;;4.60;;
9972;SDS011;5027;53.560;10.062;2023-03-29T08:02:11;10.53;;;5.10;;
9972;SDS011;5027;53.560;10.062;2023-03-29T08:04:42;7.53;;;4.40;;
9972;SDS011;5027;53.560;10.062;2023-03-29T08:07:15;5.43;;;4.43;;
9972;SDS011;5027;53.560;10.062;2023-03-29T08:10:09;10.43;;;5.33;;
9972;SDS011;5027;53.560;10.062;2023-03-29T08:12:58;8.60;;;4.50;;
9972;SDS011;5027;53.560;10.062;2023-03-29T08:15:37;8.90;;;4.73;;
9972;SDS011;5027;53.560;10.062;2023-03-29T08:18:14;7.17;;;5.03;;
9972;SDS011;5027;53.560;10.062;2023-03-29T08:20:41;7.23;;;5.00;;
9972;SDS011;5027;53.560;10.062;2023-03-29T08:23:08;6.97;;;4.90;;
9972;SDS011;5027;53.560;10.062;2023-03-29T08:25:41;5.47;;;4.43;;
9972;SDS011;5027;53.560;10.062;2023-03-29T08:28:08;5.33;;;4.50;;
9972;SDS011;5027;53.560;10.062;2023-03-29T08:30:44;6.30;;;4.57;;
9972;SDS011;5027;53.560;10.062;2023-03-29T08:33:11;8.20;;;4.20;;
9972;SDS011;5027;53.560;10.062;2023-03-29T08:35:39;6.97;;;4.50;;
9972;SDS011;5027;53.560;10.062;2023-03-29T08:38:17;8.97;;;4.27;;
9972;SDS011;5027;53.560;10.062;2023-03-29T08:40:46;5.30;;;4.63;;
9972;SDS011;5027;53.560;10.062;2023-03-29T08:48:49;5.47;;;4.77;;
9972;SDS011;5027;53.560;10.062;2023-03-29T08:51:25;5.73;;;4.50;;
9972;SDS011;5027;53.560;10.062;2023-03-29T08:57:03;5.97;;;4.20;;
9972;SDS011;5027;53.560;10.062;2023-03-29T08:59:40;8.63;;;4.50;;
9972;SDS011;5027;53.560;10.062;2023-03-29T09:02:15;8.40;;;4.47;;
9972;SDS011;5027;53.560;10.062;2023-03-29T09:04:48;7.90;;;4.70;;
9972;SDS011;5027;53.560;10.062;2023-03-29T09:07:39;6.90;;;4.60;;
9972;SDS011;5027;53.560;10.062;2023-03-29T09:10:10;4.87;;;4.03;;
9972;SDS011;5027;53.560;10.062;2023-03-29T09:12:48;10.43;;;4.33;;
9972;SDS011;5027;53.560;10.062;2023-03-29T09:15:27;5.87;;;4.57;;
9972;SDS011;5027;53.560;10.062;2023-03-29T09:20:59;7.17;;;4.43;;
9972;SDS011;5027;53.560;10.062;2023-03-29T09:27:06;6.00;;;4.73;;
9972;SDS011;5027;53.560;10.062;2023-03-29T09:29:55;6.57;;;4.77;;
9972;SDS011;5027;53.560;10.062;2023-03-29T09:32:46;6.97;;;4.30;;
9972;SDS011;5027;53.560;10.062;2023-03-29T09:35:26;6.43;;;4.27;;
9972;SDS011;5027;53.560;10.062;2023-03-29T09:37:57;5.73;;;4.70;;
9972;SDS011;5027;53.560;10.062;2023-03-29T09:40:30;8.53;;;4.70;;
9972;SDS011;5027;53.560;10.062;2023-03-29T09:43:08;6.00;;;4.40;;
9972;SDS011;5027;53.560;10.062;2023-03-29T09:45:39;5.80;;;4.03;;
9972;SDS011;5027;53.560;10.062;2023-03-29T09:48:14;5.87;;;4.10;;
9972;SDS011;5027;53.560;10.062;2023-03-29T09:50:49;6.43;;;4.23;;
9972;SDS011;5027;53.560;10.062;2023-03-29T09:53:18;10.63;;;4.90;;
9972;SDS011;5027;53.560;10.062;2023-03-29T09:55:56;7.83;;;4.57;;
9972;SDS011;5027;53.560;10.062;2023-03-29T09:58:41;7.53;;;4.53;;
9972;SDS011;5027;53.560;10.062;2023-03-29T10:01:10;5.87;;;5.00;;
9972;SDS011;5027;53.560;10.062;2023-03-29T10:03:41;5.33;;;4.13;;
9972;SDS011;5027;53.560;10.062;2023-03-29T10:06:14;9.27;;;4.83;;
9972;SDS011;5027;53.560;10.062;2023-03-29T10:08:50;8.03;;;4.60;;
9972;SDS011;5027;53.560;10.062;2023-03-29T10:11:31;6.53;;;4.53;;
9972;SDS011;5027;53.560;10.062;2023-03-29T10:14:00;8.87;;;4.93;;
9972;SDS011;5027;53.560;10.062;2023-03-29T10:16:35;9.70;;;5.07;;
9972;SDS011;5027;53.560;10.062;2023-03-29T10:21:41;5.20;;;4.50;;
9972;SDS011;5027;53.560;10.062;2023-03-29T10:24:08;6.70;;;5.30;;
9972;SDS011;5027;53.560;10.062;2023-03-29T10:26:35;11.30;;;5.30;;
9972;SDS011;5027;53.560;10.062;2023-03-29T10:29:04;10.70;;;5.33;;
9972;SDS011;5027;53.560;10.062;2023-03-29T10:31:32;6.40;;;5.03;;
9972;SDS011;5027;53.560;10.062;2023-03-29T10:34:03;8.17;;;4.80;;
9972;SDS011;5027;53.560;10.062;2023-03-29T10:36:31;8.30;;;5.10;;
9972;SDS011;5027;53.560;10.062;2023-03-29T10:38:59;9.50;;;4.90;;
9972;SDS011;5027;53.560;10.062;2023-03-29T10:41:32;7.60;;;4.87;;
9972;SDS011;5027;53.560;10.062;2023-03-29T10:44:00;7.97;;;4.73;;
9972;SDS011;5027;53.560;10.062;2023-03-29T10:46:28;6.17;;;5.23;;
9972;SDS011;5027;53.560;10.062;2023-03-29T10:49:13;7.17;;;5.00;;
9972;SDS011;5027;53.560;10.062;2023-03-29T10:51:44;7.70;;;5.17;;
9972;SDS011;5027;53.560;10.062;2023-03-29T10:54:12;7.10;;;5.23;;
9972;SDS011;5027;53.560;10.062;2023-03-29T10:56:52;5.77;;;4.70;;
9972;SDS011;5027;53.560;10.062;2023-03-29T10:59:46;7.57;;;5.40;;
9972;SDS011;5027;53.560;10.062;2023-03-29T11:04:44;6.23;;;5.57;;
9972;SDS011;5027;53.560;10.062;2023-03-29T11:08:05;5.83;;;4.70;;
9972;SDS011;5027;53.560;10.062;2023-03-29T11:10:52;9.10;;;5.53;;
9972;SDS011;5027;53.560;10.062;2023-03-29T11:13:32;7.40;;;5.50;;
9972;SDS011;5027;53.560;10.062;2023-03-29T11:16:12;7.97;;;5.03;;
9972;SDS011;5027;53.560;10.062;2023-03-29T11:19:02;8.67;;;6.07;;
9972;SDS011;5027;53.560;10.062;2023-03-29T11:27:35;9.23;;;5.80;;
9972;SDS011;5027;53.560;10.062;2023-03-29T11:41:41;7.10;;;5.80;;
9972;SDS011;5027;53.560;10.062;2023-03-29T11:44:26;3.87;;;2.70;;
9972;SDS011;5027;53.560;10.062;2023-03-29T11:49:36;6.17;;;5.57;;
9972;SDS011;5027;53.560;10.062;2023-03-29T11:52:17;7.67;;;5.67;;
9972;SDS011;5027;53.560;10.062;2023-03-29T11:55:10;6.37;;;5.73;;
9972;SDS011;5027;53.560;10.062;2023-03-29T11:57:39;8.93;;;5.87;;
9972;SDS011;5027;53.560;10.062;2023-03-29T12:00:29;8.13;;;5.53;;
9972;SDS011;5027;53.560;10.062;2023-03-29T12:05:48;8.97;;;6.03;;
9972;SDS011;5027;53.560;10.062;2023-03-29T12:10:55;8.07;;;5.87;;
9972;SDS011;5027;53.560;10.062;2023-03-29T12:13:31;10.47;;;6.40;;
9972;SDS011;5027;53.560;10.062;2023-03-29T12:19:03;9.80;;;6.10;;
9972;SDS011;5027;53.560;10.062;2023-03-29T12:21:37;6.70;;;2.80;;
9972;SDS011;5027;53.560;10.062;2023-03-29T12:24:10;7.87;;;6.33;;
9972;SDS011;5027;53.560;10.062;2023-03-29T12:32:17;8.40;;;5.97;;
9972;SDS011;5027;53.560;10.062;2023-03-29T12:38:18;10.77;;;5.50;;
9972;SDS011;5027;53.560;10.062;2023-03-29T12:41:13;10.13;;;5.83;;
9972;SDS011;5027;53.560;10.062;2023-03-29T12:43:59;7.87;;;6.33;;
9972;SDS011;5027;53.560;10.062;2023-03-29T12:46:52;9.53;;;6.57;;
9972;SDS011;5027;53.560;10.062;2023-03-29T12:49:26;7.77;;;6.43;;
9972;SDS011;5027;53.560;10.062;2023-03-29T12:51:57;8.30;;;6.63;;
9972;SDS011;5027;53.560;10.062;2023-03-29T12:54:30;8.67;;;6.63;;
9972;SDS011;5027;53.560;10.062;2023-03-29T12:57:01;10.37;;;6.17;;
9972;SDS011;5027;53.560;10.062;2023-03-29T13:00:19;7.93;;;6.17;;
9972;SDS011;5027;53.560;10.062;2023-03-29T13:03:04;9.20;;;5.93;;
9972;SDS011;5027;53.560;10.062;2023-03-29T13:06:09;8.27;;;6.50;;
9972;SDS011;5027;53.560;10.062;2023-03-29T13:08:38;8.10;;;6.30;;
9972;SDS011;5027;53.560;10.062;2023-03-29T13:11:24;9.10;;;6.03;;
9972;SDS011;5027;53.560;10.062;2023-03-29T13:14:04;8.83;;;6.50;;
9972;SDS011;5027;53.560;10.062;2023-03-29T13:16:44;8.43;;;5.73;;
9972;SDS011;5027;53.560;10.062;2023-03-29T13:19:21;10.00;;;6.07;;
9972;SDS011;5027;53.560;10.062;2023-03-29T13:22:05;12.17;;;6.10;;
9972;SDS011;5027;53.560;10.062;2023-03-29T13:28:26;7.40;;;5.60;;
9972;SDS011;5027;53.560;10.062;2023-03-29T13:30:48;5.97;;;5.27;;
9972;SDS011;5027;53.560;10.062;2023-03-29T13:36:07;7.00;;;5.80;;
9972;SDS011;5027;53.560;10.062;2023-03-29T13:38:44;9.37;;;5.60;;
9972;SDS011;5027;53.560;10.062;2023-03-29T13:41:25;6.47;;;5.63;;
9972;SDS011;5027;53.560;10.062;2023-03-29T13:47:03;8.33;;;5.90;;
9972;SDS011;5027;53.560;10.062;2023-03-29T13:49:37;4.30;;;3.57;;
9972;SDS011;5027;53.560;10.062;2023-03-29T13:52:13;9.77;;;6.20;;
9972;SDS011;5027;53.560;10.062;2023-03-29T13:54:58;7.53;;;5.43;;
9972;SDS011;5027;53.560;10.062;2023-03-29T13:57:50;9.67;;;5.70;;
9972;SDS011;5027;53.560;10.062;2023-03-29T14:00:54;6.93;;;5.90;;
9972;SDS011;5027;53.560;10.062;2023-03-29T14:03:26;7.07;;;5.47;;
9972;SDS011;5027;53.560;10.062;2023-03-29T14:05:56;6.10;;;5.50;;
9972;SDS011;5027;53.560;10.062;2023-03-29T14:08:26;6.17;;;5.37;;
9972;SDS011;5027;53.560;10.062;2023-03-29T14:11:02;6.20;;;5.50;;
9972;SDS011;5027;53.560;10.062;2023-03-29T14:13:30;9.33;;;6.03;;
9972;SDS011;5027;53.560;10.062;2023-03-29T14:15:58;8.03;;;5.70;;
9972;SDS011;5027;53.560;10.062;2023-03-29T14:18:31;3.07;;;2.13;;
9972;SDS011;5027;53.560;10.062;2023-03-29T14:21:01;6.53;;;5.50;;
9972;SDS011;5027;53.560;10.062;2023-03-29T14:23:30;6.83;;;5.10;;
9972;SDS011;5027;53.560;10.062;2023-03-29T14:26:05;4.50;;;4.10;;
9972;SDS011;5027;53.560;10.062;2023-03-29T14:28:45;3.57;;;2.90;;
9972;SDS011;5027;53.560;10.062;2023-03-29T14:31:20;6.10;;;4.60;;
9972;SDS011;5027;53.560;10.062;2023-03-29T14:33:55;6.13;;;5.20;;
9972;SDS011;5027;53.560;10.062;2023-03-29T14:36:24;5.67;;;5.17;;
9972;SDS011;5027;53.560;10.062;2023-03-29T14:38:54;7.37;;;5.07;;
9972;SDS011;5027;53.560;10.062;2023-03-29T14:41:28;5.87;;;5.27;;
9972;SDS011;5027;53.560;10.062;2023-03-29T14:43:59;5.97;;;2.73;;
9972;SDS011;5027;53.560;10.062;2023-03-29T14:46:28;7.87;;;4.70;;
9972;SDS011;5027;53.560;10.062;2023-03-29T14:48:55;7.53;;;4.80;;
9972;SDS011;5027;53.560;10.062;2023-03-29T14:51:23;6.70;;;5.53;;
9972;SDS011;5027;53.560;10.062;2023-03-29T14:53:53;5.27;;;3.87;;
9972;SDS011;5027;53.560;10.062;2023-03-29T14:56:22;6.93;;;5.70;;
9972;SDS011;5027;53.560;10.062;2023-03-29T14:58:54;6.93;;;5.80;;
9972;SDS011;5027;53.560;10.062;2023-03-29T15:01:22;4.20;;;3.17;;
9972;SDS011;5027;53.560;10.062;2023-03-29T15:03:54;6.13;;;5.57;;
9972;SDS011;5027;53.560;10.062;2023-03-29T15:06:31;7.43;;;5.90;;
9972;SDS011;5027;53.560;10.062;2023-03-29T15:09:02;8.63;;;6.20;;
9972;SDS011;5027;53.560;10.062;2023-03-29T15:11:33;8.23;;;6.30;;
9972;SDS011;5027;53.560;10.062;2023-03-29T15:14:02;7.00;;;6.30;;
9972;SDS011;5027;53.560;10.062;2023-03-29T15:16:31;7.67;;;6.33;;
9972;SDS011;5027;53.560;10.062;2023-03-29T15:18:58;7.37;;;6.60;;
9972;SDS011;5027;53.560;10.062;2023-03-29T15:21:33;8.87;;;6.57;;
9972;SDS011;5027;53.560;10.062;2023-03-29T15:24:02;9.10;;;7.10;;
9972;SDS011;5027;53.560;10.062;2023-03-29T15:26:32;7.30;;;6.53;;
9972;SDS011;5027;53.560;10.062;2023-03-29T15:29:03;7.60;;;6.83;;
9972;SDS011;5027;53.560;10.062;2023-03-29T15:31:33;9.03;;;6.33;;
9972;SDS011;5027;53.560;10.062;2023-03-29T15:34:06;8.63;;;6.40;;
9972;SDS011;5027;53.560;10.062;2023-03-29T15:36:38;7.10;;;6.50;;
9972;SDS011;5027;53.560;10.062;2023-03-29T15:39:11;7.90;;;6.83;;
9972;SDS011;5027;53.560;10.062;2023-03-29T15:41:39;9.33;;;7.37;;
9972;SDS011;5027;53.560;10.062;2023-03-29T15:44:07;8.23;;;6.60;;
9972;SDS011;5027;53.560;10.062;2023-03-29T15:46:34;8.97;;;6.67;;
9972;SDS011;5027;53.560;10.062;2023-03-29T15:49:01;7.60;;;6.73;;
9972;SDS011;5027;53.560;10.062;2023-03-29T15:51:30;7.83;;;7.03;;
9972;SDS011;5027;53.560;10.062;2023-03-29T15:53:57;7.20;;;6.50;;
9972;SDS011;5027;53.560;10.062;2023-03-29T15:56:23;7.47;;;6.77;;
9972;SDS011;5027;53.560;10.062;2023-03-29T15:58:51;7.80;;;7.00;;
9972;SDS011;5027;53.560;10.062;2023-03-29T16:01:30;8.87;;;7.27;;
9972;SDS011;5027;53.560;10.062;2023-03-29T16:04:00;7.67;;;6.37;;
9972;SDS011;5027;53.560;10.062;2023-03-29T16:06:30;8.00;;;6.90;;
9972;SDS011;5027;53.560;10.062;2023-03-29T16:08:58;8.33;;;7.43;;
9972;SDS011;5027;53.560;10.062;2023-03-29T16:11:25;10.67;;;7.27;;
9972;SDS011;5027;53.560;10.062;2023-03-29T16:13:53;8.57;;;7.57;;
9972;SDS011;5027;53.560;10.062;2023-03-29T16:16:21;10.10;;;8.03;;
9972;SDS011;5027;53.560;10.062;2023-03-29T16:18:48;12.13;;;8.77;;
9972;SDS011;5027;53.560;10.062;2023-03-29T16:21:16;10.27;;;8.07;;
9972;SDS011;5027;53.560;10.062;2023-03-29T16:23:44;8.30;;;7.50;;
9972;SDS011;5027;53.560;10.062;2023-03-29T16:26:13;12.77;;;8.30;;
9972;SDS011;5027;53.560;10.062;2023-03-29T16:28:42;11.90;;;7.87;;
9972;SDS011;5027;53.560;10.062;2023-03-29T16:31:09;10.23;;;8.00;;
9972;SDS011;5027;53.560;10.062;2023-03-29T16:33:37;9.67;;;7.67;;
9972;SDS011;5027;53.560;10.062;2023-03-29T16:36:05;9.03;;;7.90;;
9972;SDS011;5027;53.560;10.062;2023-03-29T16:38:33;10.30;;;8.43;;
9972;SDS011;5027;53.560;10.062;2023-03-29T16:41:00;10.90;;;8.57;;
9972;SDS011;5027;53.560;10.062;2023-03-29T16:43:27;11.83;;;8.60;;
9972;SDS011;5027;53.560;10.062;2023-03-29T16:45:54;9.87;;;8.33;;
9972;SDS011;5027;53.560;10.062;2023-03-29T16:48:20;14.67;;;8.40;;
9972;SDS011;5027;53.560;10.062;2023-03-29T16:50:48;11.17;;;8.30;;
9972;SDS011;5027;53.560;10.062;2023-03-29T16:53:15;8.37;;;7.33;;
9972;SDS011;5027;53.560;10.062;2023-03-29T16:55:46;8.83;;;7.63;;
9972;SDS011;5027;53.560;10.062;2023-03-29T16:58:13;8.67;;;7.47;;
9972;SDS011;5027;53.560;10.062;2023-03-29T17:00:40;10.73;;;7.90;;
9972;SDS011;5027;53.560;10.062;2023-03-29T17:03:09;11.47;;;8.07;;
9972;SDS011;5027;53.560;10.062;2023-03-29T17:05:36;10.87;;;7.57;;